Archival Weather

Chicago O'Hare International

Chicago, Illinois (KORD)

Report from: Saturday, December 31, 2022 6:51 PM CST
Current time: Friday, April 19, 2024 3:52 AM CDT

Current weather – Weather history – Daily summaries
Weather forecast

Temperature2.2°C (36.0°F)
Wind chill0.0°C (32.1°F)
Dew point-1.7°C (28.9°F)
Winds 4 kts (2.1 m/s, 4.6 mph) East-Southeast (120°)
Visibility9 mi. (14.5 km)
Clouds Ceiling: Broken clouds 7,500 ft. (2,286 m)
Broken clouds 10,000 ft. (3,048 m)
Altimeter29.89 in.Hg (1012 mB)
Relative humidity75 %
Density altitude-1,458 ft. (-444 m)
Sea-level pressure101.3 kPa (1013 mB, 29.91 in.Hg)
Remarks Automated weather observing station with precipitation discriminator
Flight conditions Visual Meteorological Conditions
Raw dataKORD 010051Z 12004KT 9SM BKN075 BKN100 02/M02 A2989 RMK AO2 SLP128 T00221017
An error has occurred. This application may no longer respond until reloaded. Reload 🗙